createdAt,value
2018-10-16T00:01:46.275Z,101374.06
2018-10-16T00:04:15.425Z,101371.08
2018-10-16T00:06:44.561Z,101378.42
2018-10-16T00:09:13.740Z,101376.26
2018-10-16T00:11:53.693Z,101377.62
2018-10-16T00:14:22.781Z,101374.61
2018-10-16T00:28:23.130Z,101382.58
2018-10-16T00:30:52.815Z,101384.77
2018-10-16T00:33:21.896Z,101377.66
2018-10-16T00:35:51.004Z,101379.28
2018-10-16T00:38:20.195Z,101367.53
2018-10-16T00:40:51.434Z,101367.28
2018-10-16T00:43:21.317Z,101367.25
2018-10-16T00:45:50.479Z,101371.06
2018-10-16T00:48:19.836Z,101376.81
2018-10-16T00:50:48.942Z,101376.00
2018-10-16T00:53:18.141Z,101383.09
2018-10-16T00:55:47.760Z,101372.13
2018-10-16T00:58:17.356Z,101376.78
2018-10-16T01:00:46.468Z,101363.66
2018-10-16T01:03:15.530Z,101377.86
2018-10-16T01:05:44.832Z,101373.22
2018-10-16T01:08:13.957Z,101386.06
2018-10-16T01:10:43.774Z,101375.92
2018-10-16T01:13:13.035Z,101373.20
2018-10-16T01:15:42.180Z,101380.31
2018-10-16T01:18:11.358Z,101377.02
2018-10-16T01:20:42.585Z,101377.84
2018-10-16T01:23:11.699Z,101379.75
2018-10-16T01:25:40.778Z,101381.66
2018-10-16T01:28:09.806Z,101380.57
2018-10-16T01:30:39.636Z,101384.42
2018-10-16T01:33:09.527Z,101384.42
2018-10-16T01:35:38.597Z,101384.42
2018-10-16T01:38:08.240Z,101378.12
2018-10-16T01:40:38.746Z,101372.66
2018-10-16T01:43:09.316Z,101376.50
2018-10-16T01:45:38.366Z,101374.56
2018-10-16T01:48:07.519Z,101376.47
2018-10-16T01:50:36.646Z,101383.31
2018-10-16T01:53:05.798Z,101384.67
2018-10-16T01:55:35.076Z,101387.13
2018-10-16T01:58:04.418Z,101385.50
2018-10-16T02:00:33.516Z,101397.26
2018-10-16T02:03:02.590Z,101387.16
2018-10-16T02:05:31.687Z,101380.03
2018-10-16T02:08:00.851Z,101372.66
2018-10-16T02:10:29.975Z,101378.95
2018-10-16T02:12:59.068Z,101373.48
2018-10-16T02:15:28.235Z,101375.13
2018-10-16T02:17:57.305Z,101375.67
2018-10-16T02:20:26.491Z,101366.11
2018-10-16T02:22:55.567Z,101365.54
2018-10-16T02:25:24.782Z,101362.80
2018-10-16T02:27:53.928Z,101362.52
2018-10-16T02:30:23.001Z,101360.62
2018-10-16T02:32:52.102Z,101352.42
2018-10-16T02:35:21.247Z,101342.30
2018-10-16T02:37:50.447Z,101357.05
2018-10-16T02:40:19.766Z,101346.95
2018-10-16T02:42:48.899Z,101352.95
2018-10-16T02:45:18.000Z,101352.13
2018-10-16T02:47:47.171Z,101345.55
2018-10-16T02:50:16.341Z,101343.94
2018-10-16T02:52:45.452Z,101339.83
2018-10-16T02:55:14.540Z,101349.11
2018-10-16T02:57:43.611Z,101355.41
2018-10-16T03:00:12.714Z,101355.41
2018-10-16T03:02:41.858Z,101357.03
2018-10-16T03:05:10.923Z,101351.02
2018-10-16T03:07:40.037Z,101354.84
2018-10-16T03:10:09.443Z,101349.66
2018-10-16T03:12:38.617Z,101345.27
2018-10-16T03:15:10.968Z,101347.17
2018-10-16T03:17:41.012Z,101355.37
2018-10-16T03:20:11.340Z,101342.53
2018-10-16T03:22:41.151Z,101345.81
2018-10-16T03:25:12.261Z,101349.91
2018-10-16T03:27:41.786Z,101347.72
2018-10-16T03:30:12.068Z,101341.42
2018-10-16T03:32:41.329Z,101337.33
2018-10-16T03:35:11.636Z,101345.78
2018-10-16T03:37:41.720Z,101345.78
2018-10-16T03:40:12.695Z,101350.17
2018-10-16T03:42:42.982Z,101348.80
2018-10-16T03:45:13.711Z,101352.08
2018-10-16T03:47:42.881Z,101345.78
2018-10-16T03:50:11.978Z,101350.70
2018-10-16T03:52:41.027Z,101348.80
2018-10-16T03:55:10.209Z,101353.98
2018-10-16T03:57:39.318Z,101350.67
2018-10-16T04:00:09.127Z,101355.35
2018-10-16T04:02:38.510Z,101344.16
2018-10-16T04:05:07.595Z,101350.67
2018-10-16T04:07:36.649Z,101332.65
2018-10-16T04:10:06.299Z,101331.28
2018-10-16T04:12:35.376Z,101333.77
2018-10-16T04:15:04.510Z,101329.38
2018-10-16T04:17:33.659Z,101334.02
2018-10-16T04:20:02.709Z,101345.50
2018-10-16T04:22:31.826Z,101328.30
2018-10-16T04:25:00.833Z,101335.13
2018-10-16T04:27:30.062Z,101329.92
2018-10-16T04:29:59.093Z,101325.56
2018-10-16T04:32:28.213Z,101340.03
2018-10-16T04:34:57.380Z,101335.38
2018-10-16T04:37:26.455Z,101350.42
2018-10-16T04:39:55.543Z,101351.53
2018-10-16T04:42:24.672Z,101359.73
2018-10-16T04:44:53.787Z,101355.09
2018-10-16T04:47:22.851Z,101353.73
2018-10-16T04:49:51.935Z,101357.83
2018-10-16T04:52:21.037Z,101362.47
2018-10-16T04:54:50.078Z,101364.09
2018-10-16T04:57:19.148Z,101357.55
2018-10-16T04:59:48.333Z,101355.09
2018-10-16T05:02:17.470Z,101351.28
2018-10-16T05:04:46.615Z,101358.91
2018-10-16T05:07:15.689Z,101351.82
2018-10-16T05:09:44.730Z,101350.45
2018-10-16T05:12:13.855Z,101350.45
2018-10-16T05:14:42.970Z,101347.72
2018-10-16T05:17:12.337Z,101337.03
2018-10-16T05:19:42.632Z,101331.03
2018-10-16T05:22:11.888Z,101327.76
2018-10-16T05:24:40.884Z,101325.81
2018-10-16T05:27:09.922Z,101338.69
2018-10-16T05:29:39.068Z,101331.57
2018-10-16T05:32:08.182Z,101344.41
2018-10-16T05:34:37.321Z,101347.18
2018-10-16T05:37:06.577Z,101357.28
2018-10-16T05:39:35.801Z,101357.54
2018-10-16T05:42:04.960Z,101360.56
2018-10-16T05:44:35.370Z,101352.08
2018-10-16T05:52:50.428Z,101374.45
2018-10-16T05:55:19.519Z,101382.13
2018-10-16T05:57:49.473Z,101384.86
2018-10-16T06:00:29.877Z,101384.57
2018-10-16T06:02:58.907Z,101397.95
2018-10-16T06:05:28.078Z,101400.16
2018-10-16T06:07:57.144Z,101395.22
2018-10-16T06:10:26.837Z,101396.02
2018-10-16T06:12:56.041Z,101396.02
2018-10-16T06:15:25.235Z,101391.66
2018-10-16T06:17:54.343Z,101392.74
2018-10-16T06:20:23.438Z,101387.02
2018-10-16T06:22:52.503Z,101396.88
2018-10-16T06:25:21.716Z,101382.41
2018-10-16T06:27:50.860Z,101397.41
2018-10-16T06:30:19.964Z,101403.97
2018-10-16T06:32:49.170Z,101406.42
2018-10-16T06:35:19.115Z,101409.41
2018-10-16T06:37:48.239Z,101403.94
2018-10-16T06:40:17.428Z,101411.86
2018-10-16T06:42:47.633Z,101415.13
2018-10-16T06:45:17.655Z,101420.60
2018-10-16T06:47:46.808Z,101428.55
2018-10-16T06:50:15.865Z,101432.09
2018-10-16T06:52:44.984Z,101427.73
2018-10-16T06:55:15.364Z,101435.36
2018-10-16T06:57:44.455Z,101429.61
2018-10-16T07:00:13.673Z,101427.13
2018-10-16T07:02:42.709Z,101428.78
2018-10-16T07:05:11.886Z,101430.40
2018-10-16T07:07:41.566Z,101425.22
2018-10-16T07:10:10.965Z,101433.67
2018-10-16T07:12:40.201Z,101440.52
2018-10-16T07:15:09.740Z,101435.59
2018-10-16T07:17:40.890Z,101439.12
2018-10-16T07:20:10.283Z,101443.51
2018-10-16T07:22:40.866Z,101443.80
2018-10-16T07:25:10.496Z,101443.25
2018-10-16T07:27:39.589Z,101442.97
2018-10-16T07:30:12.715Z,101450.34
2018-10-16T07:32:43.764Z,101450.34
2018-10-16T07:35:12.933Z,101453.38
2018-10-16T07:37:42.273Z,101463.48
2018-10-16T07:40:12.098Z,101462.38
2018-10-16T07:42:41.719Z,101471.95
2018-10-16T07:45:10.821Z,101477.39
2018-10-16T07:47:39.915Z,101480.95
2018-10-16T07:50:12.780Z,101484.77
2018-10-16T07:52:41.983Z,101481.75
2018-10-16T07:55:13.711Z,101489.13
2018-10-16T07:57:42.783Z,101492.98
2018-10-16T08:00:14.126Z,101490.50
2018-10-16T08:02:44.128Z,101486.69
2018-10-16T08:05:13.370Z,101497.59
2018-10-16T08:07:42.628Z,101492.92
2018-10-16T08:10:13.421Z,101489.64
2018-10-16T08:12:43.113Z,101495.66
2018-10-16T08:15:12.548Z,101503.58
2018-10-16T08:17:42.176Z,101499.77
2018-10-16T08:20:11.225Z,101504.95
2018-10-16T08:22:40.609Z,101502.21
2018-10-16T08:25:09.707Z,101509.05
2018-10-16T08:27:40.215Z,101503.58
2018-10-16T08:30:12.263Z,101506.32
2018-10-16T08:32:41.340Z,101506.32
2018-10-16T08:35:11.301Z,101513.45
2018-10-16T08:39:53.757Z,101506.32
2018-10-16T08:42:38.137Z,101503.58
2018-10-16T08:45:18.664Z,101510.71
2018-10-16T08:47:59.569Z,101517.55
2018-10-16T08:50:41.542Z,101524.39
2018-10-16T08:53:10.640Z,101529.05
2018-10-16T08:55:39.721Z,101524.39
2018-10-16T08:58:08.954Z,101530.12
2018-10-16T09:00:38.716Z,101531.75
2018-10-16T09:03:07.766Z,101541.61
2018-10-16T09:05:36.861Z,101531.20
2018-10-16T09:08:06.704Z,101534.23
2018-10-16T09:10:37.076Z,101532.83
2018-10-16T09:13:06.486Z,101537.22
2018-10-16T09:15:35.833Z,101536.11
2018-10-16T09:18:05.462Z,101535.83
2018-10-16T09:20:35.949Z,101528.98
2018-10-16T09:23:06.342Z,101541.27
2018-10-16T09:25:39.239Z,101539.36
2018-10-16T09:28:08.385Z,101536.05
2018-10-16T09:30:37.489Z,101535.50
2018-10-16T09:33:06.839Z,101534.42
2018-10-16T09:35:37.066Z,101531.42
2018-10-16T09:38:10.345Z,101541.52
2018-10-16T09:40:39.704Z,101532.48
2018-10-16T09:43:11.729Z,101531.11
2018-10-16T09:45:40.820Z,101530.24
2018-10-16T09:48:13.331Z,101522.56
2018-10-16T09:50:43.445Z,101507.17
2018-10-16T09:53:13.151Z,101515.30
2018-10-16T09:55:42.653Z,101513.05
2018-10-16T09:58:12.242Z,101512.22
2018-10-16T10:00:46.542Z,101514.08
2018-10-16T10:03:16.166Z,101509.09
2018-10-16T10:05:45.349Z,101505.26
2018-10-16T10:08:14.545Z,101512.06
2018-10-16T10:10:44.505Z,101515.91
2018-10-16T10:13:14.482Z,101516.94
2018-10-16T10:15:45.849Z,101516.34
2018-10-16T10:18:16.180Z,101517.95
2018-10-16T10:20:45.593Z,101520.34
2018-10-16T10:23:14.841Z,101524.40
2018-10-16T10:25:45.493Z,101522.72
2018-10-16T10:28:14.791Z,101526.53
2018-10-16T10:30:43.912Z,101516.62
2018-10-16T10:33:15.672Z,101519.90
2018-10-16T10:35:44.796Z,101525.63
2018-10-16T10:40:51.418Z,101531.12
2018-10-16T10:43:20.538Z,101529.73
2018-10-16T10:45:49.713Z,101527.53
2018-10-16T10:48:19.368Z,101528.37
2018-10-16T10:50:48.803Z,101525.94
2018-10-16T10:53:17.716Z,101530.09
2018-10-16T10:55:46.840Z,101525.45
2018-10-16T10:58:16.047Z,101528.48
2018-10-16T11:00:46.389Z,101526.59
2018-10-16T11:03:15.809Z,101530.95
2018-10-16T11:05:44.869Z,101521.34
2018-10-16T11:08:13.916Z,101517.76
2018-10-16T11:10:43.861Z,101517.76
2018-10-16T11:13:14.070Z,101521.88
2018-10-16T11:15:43.280Z,101529.05
2018-10-16T11:18:13.008Z,101528.27
2018-10-16T11:20:43.543Z,101523.67
2018-10-16T11:23:12.602Z,101522.35
2018-10-16T11:25:43.144Z,101524.02
2018-10-16T11:28:12.291Z,101522.13
2018-10-16T11:30:41.422Z,101531.77
2018-10-16T11:33:10.861Z,101537.79
2018-10-16T11:35:41.029Z,101531.23
2018-10-16T11:38:11.185Z,101543.31
2018-10-16T11:40:40.317Z,101542.20
2018-10-16T11:43:09.536Z,101552.64
2018-10-16T11:45:39.266Z,101546.37
2018-10-16T11:48:11.702Z,101551.03
2018-10-16T11:50:42.446Z,101550.49
2018-10-16T11:53:13.386Z,101549.70
2018-10-16T11:55:43.257Z,101547.25
2018-10-16T11:58:12.967Z,101549.75
2018-10-16T12:00:42.020Z,101554.94
2018-10-16T12:03:11.115Z,101562.58
2018-10-16T12:08:14.876Z,101561.45
2018-10-16T12:10:45.245Z,101556.25
2018-10-16T12:13:14.507Z,101558.41
2018-10-16T12:15:44.875Z,101557.29
2018-10-16T12:18:16.752Z,101558.37
2018-10-16T12:20:55.501Z,101557.83
2018-10-16T12:23:26.474Z,101565.80
2018-10-16T12:25:57.160Z,101567.96
2018-10-16T12:28:29.277Z,101568.53
2018-10-16T12:31:01.350Z,101564.69
2018-10-16T12:33:31.217Z,101569.33
2018-10-16T12:36:01.473Z,101572.07
2018-10-16T12:38:35.705Z,101565.22
2018-10-16T12:41:04.953Z,101566.34
2018-10-16T12:43:34.164Z,101575.39
2018-10-16T12:46:03.293Z,101575.14
2018-10-16T12:48:32.760Z,101573.49
2018-10-16T12:51:02.481Z,101569.67
2018-10-16T12:53:32.065Z,101571.38
2018-10-16T12:56:02.581Z,101567.02
2018-10-16T12:58:32.659Z,101577.14
2018-10-16T13:01:01.880Z,101568.92
2018-10-16T13:03:32.317Z,101564.81
2018-10-16T13:06:05.160Z,101565.90
2018-10-16T13:08:36.177Z,101575.23
2018-10-16T13:11:05.673Z,101572.48
2018-10-16T13:13:35.091Z,101579.84
2018-10-16T13:16:04.176Z,101579.59
2018-10-16T13:18:33.795Z,101574.66
2018-10-16T13:21:02.929Z,101576.06
2018-10-16T13:23:32.468Z,101580.43
2018-10-16T13:26:11.374Z,101584.00
2018-10-16T13:28:40.493Z,101576.36
2018-10-16T13:31:13.996Z,101576.36
2018-10-16T13:33:47.554Z,101577.44
2018-10-16T13:36:17.335Z,101579.38
2018-10-16T13:38:47.060Z,101584.86
2018-10-16T13:41:16.222Z,101583.50
2018-10-16T13:43:54.125Z,101589.52
2018-10-16T13:46:24.192Z,101592.00
2018-10-16T13:48:53.408Z,101596.11
2018-10-16T13:51:24.235Z,101587.93
2018-10-16T13:53:53.441Z,101592.08
2018-10-16T13:56:22.621Z,101588.80
2018-10-16T13:58:54.495Z,101589.63
2018-10-16T14:01:24.366Z,101591.25
2018-10-16T14:06:27.180Z,101586.81
2018-10-16T14:08:57.105Z,101578.55
2018-10-16T14:11:26.690Z,101570.00
2018-10-16T14:13:56.484Z,101573.23
2018-10-16T14:16:31.482Z,101566.05
2018-10-16T14:19:01.580Z,101560.56
2018-10-16T14:21:33.545Z,101560.31
2018-10-16T14:24:03.537Z,101560.55
2018-10-16T14:26:34.493Z,101562.16
2018-10-16T14:29:05.831Z,101563.53
2018-10-16T14:31:35.017Z,101556.39
2018-10-16T14:38:39.978Z,101558.05
2018-10-16T14:41:11.882Z,101548.70
2018-10-16T14:43:44.736Z,101550.61
2018-10-16T14:46:14.838Z,101558.78
2018-10-16T14:48:44.395Z,101554.91
2018-10-16T14:51:13.489Z,101565.33
2018-10-16T14:53:43.508Z,101567.25
2018-10-16T14:56:13.601Z,101570.81
2018-10-16T14:58:42.676Z,101572.44
2018-10-16T15:01:12.446Z,101562.55
2018-10-16T15:03:41.638Z,101568.85
2018-10-16T15:06:11.306Z,101572.39
2018-10-16T15:08:40.384Z,101569.64
2018-10-16T15:11:21.049Z,101578.41
2018-10-16T15:13:52.880Z,101582.23
2018-10-16T15:16:22.023Z,101580.59
2018-10-16T15:18:51.125Z,101587.98
2018-10-16T15:21:20.181Z,101582.45
2018-10-16T15:23:50.532Z,101596.16
2018-10-16T15:26:19.689Z,101585.98
2018-10-16T15:28:49.254Z,101582.16
2018-10-16T15:31:18.421Z,101589.36
2018-10-16T15:33:47.549Z,101581.69
2018-10-16T15:36:18.347Z,101580.89
2018-10-16T15:38:48.837Z,101580.66
2018-10-16T15:41:18.328Z,101571.06
2018-10-16T15:43:47.309Z,101576.84
2018-10-16T15:46:16.368Z,101573.61
2018-10-16T15:48:45.436Z,101571.95
2018-10-16T15:51:14.589Z,101568.67
2018-10-16T15:53:43.680Z,101570.88
2018-10-16T15:56:13.468Z,101575.83
2018-10-16T15:58:43.177Z,101573.95
2018-10-16T16:01:13.404Z,101573.13
2018-10-16T16:03:42.869Z,101574.55
2018-10-16T16:06:12.216Z,101571.55
2018-10-16T16:08:41.257Z,101571.78
2018-10-16T16:11:11.196Z,101568.25
2018-10-16T16:13:40.415Z,101563.89
2018-10-16T16:16:11.135Z,101574.03
2018-10-16T16:18:41.386Z,101558.71
2018-10-16T16:21:11.270Z,101567.52
2018-10-16T16:23:40.679Z,101550.28
2018-10-16T16:26:09.746Z,101554.69
2018-10-16T16:28:38.913Z,101552.78
2018-10-16T16:31:08.035Z,101552.24
2018-10-16T16:33:37.267Z,101553.07
2018-10-16T16:36:06.823Z,101556.39
2018-10-16T16:38:36.012Z,101561.33
2018-10-16T16:41:24.422Z,101561.91
2018-10-16T16:44:09.467Z,101559.46
2018-10-16T16:46:51.156Z,101561.41
2018-10-16T16:49:22.435Z,101563.06
2018-10-16T16:51:53.005Z,101557.08
2018-10-16T16:54:22.065Z,101567.75
2018-10-16T16:56:51.284Z,101564.50
2018-10-16T16:59:20.293Z,101566.70
2018-10-16T17:01:49.317Z,101580.14
2018-10-16T17:04:19.549Z,101573.33
2018-10-16T17:06:48.820Z,101581.28
2018-10-16T17:09:18.728Z,101582.93
2018-10-16T17:11:47.938Z,101580.51
2018-10-16T17:14:16.968Z,101579.97
2018-10-16T17:16:46.110Z,101583.23
2018-10-16T17:19:15.755Z,101589.28
2018-10-16T17:21:45.512Z,101586.00
2018-10-16T17:24:15.152Z,101583.00
2018-10-16T17:26:44.238Z,101579.75
2018-10-16T17:29:13.311Z,101586.89
2018-10-16T17:31:42.408Z,101584.11
2018-10-16T17:34:11.664Z,101590.15
2018-10-16T17:36:41.379Z,101587.69
2018-10-16T17:39:13.457Z,101591.81
2018-10-16T17:41:42.685Z,101593.19
2018-10-16T17:44:11.912Z,101593.47
2018-10-16T17:46:41.061Z,101607.41
2018-10-16T17:49:10.890Z,101607.71
2018-10-16T17:51:40.013Z,101607.98
2018-10-16T17:54:09.298Z,101607.16
2018-10-16T17:56:39.428Z,101613.17
2018-10-16T17:59:08.747Z,101613.98
2018-10-16T18:01:38.061Z,101618.65
2018-10-16T18:04:07.293Z,101620.02
2018-10-16T18:06:37.104Z,101619.75
2018-10-16T18:09:08.668Z,101614.27
2018-10-16T18:11:38.111Z,101616.47
2018-10-16T18:14:07.831Z,101618.91
2018-10-16T18:16:38.392Z,101625.77
2018-10-16T18:19:07.983Z,101625.49
2018-10-16T18:21:40.271Z,101627.38
2018-10-16T18:24:09.832Z,101634.77
2018-10-16T18:26:38.979Z,101632.85
2018-10-16T18:29:08.045Z,101633.96
2018-10-16T18:31:37.116Z,101634.77
2018-10-16T18:34:07.379Z,101639.41
2018-10-16T18:36:37.361Z,101631.75
2018-10-16T18:39:08.061Z,101632.05
2018-10-16T18:41:37.961Z,101626.58
2018-10-16T18:44:07.008Z,101633.41
2018-10-16T18:46:36.276Z,101632.59
2018-10-16T18:49:05.508Z,101630.13
2018-10-16T18:51:35.022Z,101624.94
2018-10-16T18:54:04.225Z,101626.03
2018-10-16T18:56:33.345Z,101643.78
2018-10-16T18:59:03.637Z,101637.50
2018-10-16T19:01:33.375Z,101636.42
2018-10-16T19:04:02.442Z,101639.71
2018-10-16T19:06:31.536Z,101633.42
2018-10-16T19:09:00.606Z,101636.95
2018-10-16T19:11:29.711Z,101632.31
2018-10-16T19:13:59.239Z,101635.31
2018-10-16T19:16:28.650Z,101631.50
2018-10-16T19:18:58.494Z,101641.62
2018-10-16T19:21:28.522Z,101636.95
2018-10-16T19:23:57.715Z,101635.05
2018-10-16T19:26:26.769Z,101639.41
2018-10-16T19:28:55.844Z,101633.16
2018-10-16T19:31:24.932Z,101635.33
2018-10-16T19:33:54.673Z,101633.97
2018-10-16T19:36:23.868Z,101636.95
2018-10-16T19:38:53.241Z,101639.16
2018-10-16T19:41:22.380Z,101641.89
2018-10-16T19:43:51.414Z,101629.03
2018-10-16T19:46:20.595Z,101640.51
2018-10-16T19:48:49.803Z,101642.97
2018-10-16T19:51:18.877Z,101638.88
2018-10-16T19:53:48.332Z,101640.52
2018-10-16T19:56:17.369Z,101639.15
2018-10-16T19:58:46.468Z,101634.78
2018-10-16T20:01:16.304Z,101638.04
2018-10-16T20:03:45.410Z,101644.88
2018-10-16T20:06:14.512Z,101633.14
2018-10-16T20:08:43.671Z,101644.61
2018-10-16T20:11:12.656Z,101641.89
2018-10-16T20:13:41.818Z,101641.61
2018-10-16T20:16:11.075Z,101640.23
2018-10-16T20:18:40.066Z,101636.70
2018-10-16T20:21:09.082Z,101642.16
2018-10-16T20:23:38.260Z,101637.52
2018-10-16T20:26:07.820Z,101633.97
2018-10-16T20:28:37.660Z,101635.31
2018-10-16T20:31:07.727Z,101636.14
2018-10-16T20:33:38.507Z,101637.52
2018-10-16T20:36:07.638Z,101638.33
2018-10-16T20:38:37.484Z,101643.54
2018-10-16T20:41:07.427Z,101632.87
2018-10-16T20:43:37.073Z,101643.25
2018-10-16T20:46:07.018Z,101645.98
2018-10-16T20:48:36.800Z,101650.08
2018-10-16T20:51:06.055Z,101641.61
2018-10-16T20:53:35.444Z,101645.43
2018-10-16T20:56:06.176Z,101645.17
2018-10-16T20:58:35.275Z,101644.36
2018-10-16T21:01:04.536Z,101651.17
2018-10-16T21:03:33.570Z,101645.17
2018-10-16T21:06:02.885Z,101659.10
2018-10-16T21:08:32.182Z,101654.47
2018-10-16T21:11:03.614Z,101650.92
2018-10-16T21:13:32.721Z,101647.91
2018-10-16T21:16:01.748Z,101652.02
2018-10-16T21:18:30.804Z,101651.73
2018-10-16T21:20:59.901Z,101653.93
2018-10-16T21:23:29.632Z,101648.46
2018-10-16T21:25:58.635Z,101639.42
2018-10-16T21:28:27.632Z,101635.04
2018-10-16T21:30:56.745Z,101638.06
2018-10-16T21:33:25.801Z,101630.40
2018-10-16T21:35:54.895Z,101635.59
2018-10-16T21:38:24.066Z,101633.95
2018-10-16T21:40:53.220Z,101634.21
2018-10-16T21:43:22.311Z,101634.76
2018-10-16T21:45:51.359Z,101631.48
2018-10-16T21:48:20.349Z,101640.78
2018-10-16T21:50:49.988Z,101632.03
2018-10-16T21:53:20.114Z,101639.96
2018-10-16T21:55:49.317Z,101642.98
2018-10-16T21:58:18.382Z,101635.58
2018-10-16T22:00:52.662Z,101640.78
2018-10-16T22:03:21.803Z,101638.05
2018-10-16T22:05:51.821Z,101629.58
2018-10-16T22:08:20.837Z,101636.41
2018-10-16T22:11:08.756Z,101640.25
2018-10-16T22:13:55.395Z,101638.88
2018-10-16T22:16:35.354Z,101640.51
2018-10-16T22:19:18.591Z,101633.93
2018-10-16T22:21:59.089Z,101640.77
2018-10-16T22:24:29.815Z,101639.97
2018-10-16T22:26:59.160Z,101639.14
2018-10-16T22:29:28.756Z,101639.69
2018-10-16T22:31:58.792Z,101638.31
2018-10-16T22:34:29.329Z,101645.42
2018-10-16T22:36:59.624Z,101639.41
2018-10-16T22:39:29.013Z,101646.23
2018-10-16T22:41:58.635Z,101642.68
2018-10-16T22:44:32.724Z,101645.70
2018-10-16T22:47:02.202Z,101643.80
2018-10-16T22:49:32.583Z,101648.16
2018-10-16T22:52:02.378Z,101642.97
2018-10-16T22:54:32.399Z,101635.04
2018-10-16T22:57:10.268Z,101636.14
2018-10-16T22:59:45.875Z,101638.60
2018-10-16T23:02:16.419Z,101640.23
2018-10-16T23:04:47.751Z,101639.70
2018-10-16T23:07:21.719Z,101636.13
2018-10-16T23:09:50.891Z,101642.68
2018-10-16T23:12:19.984Z,101644.60
2018-10-16T23:14:49.074Z,101642.97
2018-10-16T23:17:18.177Z,101639.95
2018-10-16T23:19:47.194Z,101638.88
2018-10-16T23:22:16.174Z,101647.08
2018-10-16T23:24:45.204Z,101644.63
2018-10-16T23:27:14.197Z,101640.51
2018-10-16T23:29:43.272Z,101641.31
2018-10-16T23:32:12.413Z,101637.21
2018-10-16T23:34:41.500Z,101641.59
2018-10-16T23:37:10.644Z,101640.23
2018-10-16T23:39:41.159Z,101634.50
2018-10-16T23:42:10.817Z,101636.66
2018-10-16T23:44:40.636Z,101638.86
2018-10-16T23:47:09.903Z,101638.03
2018-10-16T23:49:39.618Z,101639.69
2018-10-16T23:52:09.430Z,101647.08
2018-10-16T23:54:38.672Z,101645.70
2018-10-16T23:57:08.477Z,101639.95
2018-10-16T23:59:38.139Z,101642.42
